sensor_id;sensor_type;location;lat;lon;timestamp;P1;durP1;ratioP1;P2;durP2;ratioP2
2464;SDS011;1244;54.326;10.074;2023-02-21T00:02:08;0.20;;;0.20;;
2464;SDS011;1244;54.326;10.074;2023-02-21T00:04:56;0.20;;;0.20;;
2464;SDS011;1244;54.326;10.074;2023-02-21T00:07:40;0.20;;;0.20;;
2464;SDS011;1244;54.326;10.074;2023-02-21T00:10:24;0.20;;;0.20;;
2464;SDS011;1244;54.326;10.074;2023-02-21T00:13:08;0.20;;;0.20;;
2464;SDS011;1244;54.326;10.074;2023-02-21T00:15:52;0.20;;;0.20;;
2464;SDS011;1244;54.326;10.074;2023-02-21T00:18:37;0.20;;;0.20;;
2464;SDS011;1244;54.326;10.074;2023-02-21T00:21:22;0.20;;;0.20;;
2464;SDS011;1244;54.326;10.074;2023-02-21T00:24:07;0.20;;;0.20;;
2464;SDS011;1244;54.326;10.074;2023-02-21T00:26:54;0.20;;;0.20;;
2464;SDS011;1244;54.326;10.074;2023-02-21T00:29:38;0.20;;;0.20;;
2464;SDS011;1244;54.326;10.074;2023-02-21T00:32:22;0.20;;;0.20;;
2464;SDS011;1244;54.326;10.074;2023-02-21T00:35:06;0.23;;;0.23;;
2464;SDS011;1244;54.326;10.074;2023-02-21T00:37:51;0.20;;;0.20;;
2464;SDS011;1244;54.326;10.074;2023-02-21T00:40:36;0.20;;;0.20;;
2464;SDS011;1244;54.326;10.074;2023-02-21T00:43:30;0.20;;;0.20;;
2464;SDS011;1244;54.326;10.074;2023-02-21T00:46:16;0.20;;;0.20;;
2464;SDS011;1244;54.326;10.074;2023-02-21T00:49:01;0.20;;;0.20;;
2464;SDS011;1244;54.326;10.074;2023-02-21T00:51:45;0.20;;;0.20;;
2464;SDS011;1244;54.326;10.074;2023-02-21T00:54:30;0.20;;;0.20;;
2464;SDS011;1244;54.326;10.074;2023-02-21T00:57:14;0.20;;;0.20;;
2464;SDS011;1244;54.326;10.074;2023-02-21T00:59:58;0.20;;;0.20;;
2464;SDS011;1244;54.326;10.074;2023-02-21T01:02:42;0.30;;;0.30;;
2464;SDS011;1244;54.326;10.074;2023-02-21T01:05:27;0.20;;;0.20;;
2464;SDS011;1244;54.326;10.074;2023-02-21T01:08:11;0.20;;;0.20;;
2464;SDS011;1244;54.326;10.074;2023-02-21T01:10:56;0.20;;;0.20;;
2464;SDS011;1244;54.326;10.074;2023-02-21T01:13:40;0.20;;;0.20;;
2464;SDS011;1244;54.326;10.074;2023-02-21T01:16:27;0.20;;;0.20;;
2464;SDS011;1244;54.326;10.074;2023-02-21T01:19:15;0.20;;;0.20;;
2464;SDS011;1244;54.326;10.074;2023-02-21T01:22:00;0.20;;;0.20;;
2464;SDS011;1244;54.326;10.074;2023-02-21T01:24:47;0.40;;;0.40;;
2464;SDS011;1244;54.326;10.074;2023-02-21T01:27:32;0.30;;;0.30;;
2464;SDS011;1244;54.326;10.074;2023-02-21T01:30:16;0.20;;;0.20;;
2464;SDS011;1244;54.326;10.074;2023-02-21T01:33:00;0.30;;;0.30;;
2464;SDS011;1244;54.326;10.074;2023-02-21T01:35:44;0.20;;;0.20;;
2464;SDS011;1244;54.326;10.074;2023-02-21T01:38:28;0.30;;;0.30;;
2464;SDS011;1244;54.326;10.074;2023-02-21T01:41:15;0.20;;;0.20;;
2464;SDS011;1244;54.326;10.074;2023-02-21T01:44:02;0.10;;;0.10;;
2464;SDS011;1244;54.326;10.074;2023-02-21T01:46:48;0.30;;;0.30;;
2464;SDS011;1244;54.326;10.074;2023-02-21T01:49:34;0.20;;;0.20;;
2464;SDS011;1244;54.326;10.074;2023-02-21T01:52:21;0.27;;;0.27;;
2464;SDS011;1244;54.326;10.074;2023-02-21T01:55:06;0.20;;;0.20;;
2464;SDS011;1244;54.326;10.074;2023-02-21T01:57:51;0.30;;;0.30;;
2464;SDS011;1244;54.326;10.074;2023-02-21T02:00:36;0.20;;;0.20;;
2464;SDS011;1244;54.326;10.074;2023-02-21T02:03:20;0.20;;;0.20;;
2464;SDS011;1244;54.326;10.074;2023-02-21T02:06:09;0.50;;;0.50;;
2464;SDS011;1244;54.326;10.074;2023-02-21T02:08:55;0.60;;;0.60;;
2464;SDS011;1244;54.326;10.074;2023-02-21T02:14:38;0.10;;;0.10;;
2464;SDS011;1244;54.326;10.074;2023-02-21T02:17:14;0.27;;;0.27;;
2464;SDS011;1244;54.326;10.074;2023-02-21T02:25:50;0.20;;;0.20;;
2464;SDS011;1244;54.326;10.074;2023-02-21T02:33:56;0.30;;;0.30;;
2464;SDS011;1244;54.326;10.074;2023-02-21T02:39:10;0.20;;;0.20;;
2464;SDS011;1244;54.326;10.074;2023-02-21T02:42:01;0.23;;;0.23;;
2464;SDS011;1244;54.326;10.074;2023-02-21T02:44:40;0.20;;;0.20;;
2464;SDS011;1244;54.326;10.074;2023-02-21T02:47:13;0.20;;;0.20;;
2464;SDS011;1244;54.326;10.074;2023-02-21T02:49:46;0.20;;;0.20;;
2464;SDS011;1244;54.326;10.074;2023-02-21T02:52:14;0.30;;;0.30;;
2464;SDS011;1244;54.326;10.074;2023-02-21T02:54:39;0.20;;;0.20;;
2464;SDS011;1244;54.326;10.074;2023-02-21T02:57:05;0.30;;;0.30;;
2464;SDS011;1244;54.326;10.074;2023-02-21T02:59:34;0.20;;;0.20;;
2464;SDS011;1244;54.326;10.074;2023-02-21T03:02:09;0.30;;;0.30;;
2464;SDS011;1244;54.326;10.074;2023-02-21T03:13:33;0.27;;;0.27;;
2464;SDS011;1244;54.326;10.074;2023-02-21T03:16:29;0.30;;;0.30;;
2464;SDS011;1244;54.326;10.074;2023-02-21T03:19:19;0.30;;;0.30;;
2464;SDS011;1244;54.326;10.074;2023-02-21T03:21:59;0.30;;;0.30;;
2464;SDS011;1244;54.326;10.074;2023-02-21T03:24:27;0.30;;;0.30;;
2464;SDS011;1244;54.326;10.074;2023-02-21T03:26:55;0.40;;;0.40;;
2464;SDS011;1244;54.326;10.074;2023-02-21T03:29:24;0.50;;;0.50;;
2464;SDS011;1244;54.326;10.074;2023-02-21T03:31:53;0.20;;;0.20;;
2464;SDS011;1244;54.326;10.074;2023-02-21T03:34:22;0.30;;;0.30;;
2464;SDS011;1244;54.326;10.074;2023-02-21T03:36:48;0.30;;;0.30;;
2464;SDS011;1244;54.326;10.074;2023-02-21T03:39:14;0.60;;;0.60;;
2464;SDS011;1244;54.326;10.074;2023-02-21T03:41:39;0.60;;;0.60;;
2464;SDS011;1244;54.326;10.074;2023-02-21T03:44:05;0.20;;;0.20;;
2464;SDS011;1244;54.326;10.074;2023-02-21T03:46:30;0.60;;;0.60;;
2464;SDS011;1244;54.326;10.074;2023-02-21T03:48:56;0.90;;;0.90;;
2464;SDS011;1244;54.326;10.074;2023-02-21T03:51:21;0.93;;;0.93;;
2464;SDS011;1244;54.326;10.074;2023-02-21T03:53:47;0.90;;;0.90;;
2464;SDS011;1244;54.326;10.074;2023-02-21T03:56:12;0.80;;;0.80;;
2464;SDS011;1244;54.326;10.074;2023-02-21T03:58:38;0.60;;;0.60;;
2464;SDS011;1244;54.326;10.074;2023-02-21T04:01:03;0.83;;;0.83;;
2464;SDS011;1244;54.326;10.074;2023-02-21T04:03:29;0.70;;;0.70;;
2464;SDS011;1244;54.326;10.074;2023-02-21T04:05:54;0.67;;;0.67;;
2464;SDS011;1244;54.326;10.074;2023-02-21T04:08:20;0.60;;;0.60;;
2464;SDS011;1244;54.326;10.074;2023-02-21T04:10:46;0.60;;;0.60;;
2464;SDS011;1244;54.326;10.074;2023-02-21T04:13:11;1.23;;;1.23;;
2464;SDS011;1244;54.326;10.074;2023-02-21T04:15:37;0.80;;;0.80;;
2464;SDS011;1244;54.326;10.074;2023-02-21T04:18:03;0.77;;;0.77;;
2464;SDS011;1244;54.326;10.074;2023-02-21T04:20:28;0.93;;;0.93;;
2464;SDS011;1244;54.326;10.074;2023-02-21T04:22:54;0.60;;;0.60;;
2464;SDS011;1244;54.326;10.074;2023-02-21T04:25:19;0.60;;;0.60;;
2464;SDS011;1244;54.326;10.074;2023-02-21T04:27:45;0.80;;;0.80;;
2464;SDS011;1244;54.326;10.074;2023-02-21T04:30:10;0.90;;;0.90;;
2464;SDS011;1244;54.326;10.074;2023-02-21T04:32:36;0.57;;;0.57;;
2464;SDS011;1244;54.326;10.074;2023-02-21T04:35:01;0.57;;;0.57;;
2464;SDS011;1244;54.326;10.074;2023-02-21T04:37:27;0.90;;;0.90;;
2464;SDS011;1244;54.326;10.074;2023-02-21T04:39:52;0.60;;;0.60;;
2464;SDS011;1244;54.326;10.074;2023-02-21T04:42:18;1.00;;;1.00;;
2464;SDS011;1244;54.326;10.074;2023-02-21T04:44:44;0.60;;;0.60;;
2464;SDS011;1244;54.326;10.074;2023-02-21T04:47:09;0.77;;;0.77;;
2464;SDS011;1244;54.326;10.074;2023-02-21T04:49:35;0.70;;;0.70;;
2464;SDS011;1244;54.326;10.074;2023-02-21T04:52:00;0.50;;;0.50;;
2464;SDS011;1244;54.326;10.074;2023-02-21T04:54:26;0.60;;;0.60;;
2464;SDS011;1244;54.326;10.074;2023-02-21T04:56:51;0.50;;;0.50;;
2464;SDS011;1244;54.326;10.074;2023-02-21T04:59:17;0.40;;;0.40;;
2464;SDS011;1244;54.326;10.074;2023-02-21T05:01:42;0.70;;;0.70;;
2464;SDS011;1244;54.326;10.074;2023-02-21T05:04:08;0.73;;;0.73;;
2464;SDS011;1244;54.326;10.074;2023-02-21T05:06:33;0.90;;;0.90;;
2464;SDS011;1244;54.326;10.074;2023-02-21T05:08:59;1.00;;;1.00;;
2464;SDS011;1244;54.326;10.074;2023-02-21T05:11:25;0.70;;;0.70;;
2464;SDS011;1244;54.326;10.074;2023-02-21T05:13:51;0.80;;;0.80;;
2464;SDS011;1244;54.326;10.074;2023-02-21T05:16:17;0.60;;;0.60;;
2464;SDS011;1244;54.326;10.074;2023-02-21T05:18:43;0.70;;;0.70;;
2464;SDS011;1244;54.326;10.074;2023-02-21T05:21:10;0.97;;;0.97;;
2464;SDS011;1244;54.326;10.074;2023-02-21T05:23:37;0.60;;;0.60;;
2464;SDS011;1244;54.326;10.074;2023-02-21T05:26:05;0.60;;;0.60;;
2464;SDS011;1244;54.326;10.074;2023-02-21T05:28:32;0.93;;;0.93;;
2464;SDS011;1244;54.326;10.074;2023-02-21T05:30:58;0.70;;;0.70;;
2464;SDS011;1244;54.326;10.074;2023-02-21T05:33:24;0.90;;;0.90;;
2464;SDS011;1244;54.326;10.074;2023-02-21T05:35:49;0.63;;;0.63;;
2464;SDS011;1244;54.326;10.074;2023-02-21T05:38:16;0.47;;;0.47;;
2464;SDS011;1244;54.326;10.074;2023-02-21T05:40:42;0.50;;;0.50;;
2464;SDS011;1244;54.326;10.074;2023-02-21T05:43:08;0.70;;;0.70;;
2464;SDS011;1244;54.326;10.074;2023-02-21T05:45:34;0.30;;;0.30;;
2464;SDS011;1244;54.326;10.074;2023-02-21T05:47:59;0.40;;;0.40;;
2464;SDS011;1244;54.326;10.074;2023-02-21T05:50:26;0.30;;;0.30;;
2464;SDS011;1244;54.326;10.074;2023-02-21T05:52:53;0.30;;;0.30;;
2464;SDS011;1244;54.326;10.074;2023-02-21T05:55:19;0.30;;;0.30;;
2464;SDS011;1244;54.326;10.074;2023-02-21T05:57:45;0.40;;;0.40;;
2464;SDS011;1244;54.326;10.074;2023-02-21T06:00:43;0.20;;;0.20;;
2464;SDS011;1244;54.326;10.074;2023-02-21T06:03:02;0.30;;;0.30;;
2464;SDS011;1244;54.326;10.074;2023-02-21T06:05:27;0.20;;;0.20;;
2464;SDS011;1244;54.326;10.074;2023-02-21T06:07:53;0.23;;;0.23;;
2464;SDS011;1244;54.326;10.074;2023-02-21T06:10:18;0.30;;;0.30;;
2464;SDS011;1244;54.326;10.074;2023-02-21T06:12:44;0.20;;;0.20;;
2464;SDS011;1244;54.326;10.074;2023-02-21T06:15:09;0.20;;;0.20;;
2464;SDS011;1244;54.326;10.074;2023-02-21T06:17:37;0.20;;;0.20;;
2464;SDS011;1244;54.326;10.074;2023-02-21T06:20:04;0.30;;;0.30;;
2464;SDS011;1244;54.326;10.074;2023-02-21T06:22:30;0.30;;;0.30;;
2464;SDS011;1244;54.326;10.074;2023-02-21T06:24:55;0.20;;;0.20;;
2464;SDS011;1244;54.326;10.074;2023-02-21T06:27:21;0.30;;;0.30;;
2464;SDS011;1244;54.326;10.074;2023-02-21T06:29:47;0.30;;;0.30;;
2464;SDS011;1244;54.326;10.074;2023-02-21T06:32:12;0.20;;;0.20;;
2464;SDS011;1244;54.326;10.074;2023-02-21T06:34:38;0.30;;;0.30;;
2464;SDS011;1244;54.326;10.074;2023-02-21T06:37:03;0.20;;;0.20;;
2464;SDS011;1244;54.326;10.074;2023-02-21T06:39:29;0.20;;;0.20;;
2464;SDS011;1244;54.326;10.074;2023-02-21T06:41:54;0.40;;;0.40;;
2464;SDS011;1244;54.326;10.074;2023-02-21T06:44:20;0.40;;;0.40;;
2464;SDS011;1244;54.326;10.074;2023-02-21T06:46:46;0.30;;;0.30;;
2464;SDS011;1244;54.326;10.074;2023-02-21T06:49:14;0.30;;;0.30;;
2464;SDS011;1244;54.326;10.074;2023-02-21T06:51:40;0.30;;;0.30;;
2464;SDS011;1244;54.326;10.074;2023-02-21T06:54:06;0.30;;;0.30;;
2464;SDS011;1244;54.326;10.074;2023-02-21T06:56:32;0.40;;;0.40;;
2464;SDS011;1244;54.326;10.074;2023-02-21T06:58:58;0.20;;;0.20;;
2464;SDS011;1244;54.326;10.074;2023-02-21T07:01:25;0.20;;;0.20;;
2464;SDS011;1244;54.326;10.074;2023-02-21T07:03:52;0.40;;;0.40;;
2464;SDS011;1244;54.326;10.074;2023-02-21T07:06:19;0.47;;;0.47;;
2464;SDS011;1244;54.326;10.074;2023-02-21T07:08:45;0.47;;;0.47;;
2464;SDS011;1244;54.326;10.074;2023-02-21T07:11:11;0.40;;;0.40;;
2464;SDS011;1244;54.326;10.074;2023-02-21T07:13:37;0.30;;;0.30;;
2464;SDS011;1244;54.326;10.074;2023-02-21T07:16:03;0.50;;;0.50;;
2464;SDS011;1244;54.326;10.074;2023-02-21T07:18:29;0.30;;;0.30;;
2464;SDS011;1244;54.326;10.074;2023-02-21T07:20:54;0.30;;;0.30;;
2464;SDS011;1244;54.326;10.074;2023-02-21T07:23:20;0.30;;;0.30;;
2464;SDS011;1244;54.326;10.074;2023-02-21T07:25:45;0.50;;;0.50;;
2464;SDS011;1244;54.326;10.074;2023-02-21T07:28:11;0.30;;;0.30;;
2464;SDS011;1244;54.326;10.074;2023-02-21T07:30:36;0.20;;;0.20;;
2464;SDS011;1244;54.326;10.074;2023-02-21T07:33:02;0.20;;;0.20;;
2464;SDS011;1244;54.326;10.074;2023-02-21T07:35:28;0.30;;;0.30;;
2464;SDS011;1244;54.326;10.074;2023-02-21T07:37:53;0.20;;;0.20;;
2464;SDS011;1244;54.326;10.074;2023-02-21T07:40:19;0.20;;;0.20;;
2464;SDS011;1244;54.326;10.074;2023-02-21T07:42:44;0.20;;;0.20;;
2464;SDS011;1244;54.326;10.074;2023-02-21T07:45:12;0.30;;;0.30;;
2464;SDS011;1244;54.326;10.074;2023-02-21T07:47:38;0.30;;;0.30;;
2464;SDS011;1244;54.326;10.074;2023-02-21T07:50:04;0.30;;;0.30;;
2464;SDS011;1244;54.326;10.074;2023-02-21T07:52:30;0.30;;;0.30;;
2464;SDS011;1244;54.326;10.074;2023-02-21T07:54:56;0.23;;;0.23;;
2464;SDS011;1244;54.326;10.074;2023-02-21T07:57:21;0.40;;;0.40;;
2464;SDS011;1244;54.326;10.074;2023-02-21T07:59:47;0.40;;;0.40;;
2464;SDS011;1244;54.326;10.074;2023-02-21T08:02:12;0.30;;;0.30;;
2464;SDS011;1244;54.326;10.074;2023-02-21T08:04:39;0.40;;;0.40;;
2464;SDS011;1244;54.326;10.074;2023-02-21T08:07:04;0.30;;;0.30;;
2464;SDS011;1244;54.326;10.074;2023-02-21T08:09:30;0.20;;;0.20;;
2464;SDS011;1244;54.326;10.074;2023-02-21T08:11:56;0.30;;;0.30;;
2464;SDS011;1244;54.326;10.074;2023-02-21T08:14:21;0.47;;;0.47;;
2464;SDS011;1244;54.326;10.074;2023-02-21T08:16:47;0.20;;;0.20;;
2464;SDS011;1244;54.326;10.074;2023-02-21T08:19:12;0.20;;;0.20;;
2464;SDS011;1244;54.326;10.074;2023-02-21T08:21:38;0.20;;;0.20;;
2464;SDS011;1244;54.326;10.074;2023-02-21T08:24:12;0.30;;;0.30;;
2464;SDS011;1244;54.326;10.074;2023-02-21T08:26:38;0.23;;;0.23;;
2464;SDS011;1244;54.326;10.074;2023-02-21T08:29:05;0.20;;;0.20;;
2464;SDS011;1244;54.326;10.074;2023-02-21T08:31:38;0.20;;;0.20;;
2464;SDS011;1244;54.326;10.074;2023-02-21T08:34:05;0.20;;;0.20;;
2464;SDS011;1244;54.326;10.074;2023-02-21T08:36:32;0.30;;;0.30;;
2464;SDS011;1244;54.326;10.074;2023-02-21T08:38:59;0.30;;;0.30;;
2464;SDS011;1244;54.326;10.074;2023-02-21T08:41:25;0.30;;;0.30;;
2464;SDS011;1244;54.326;10.074;2023-02-21T08:43:59;0.20;;;0.20;;
2464;SDS011;1244;54.326;10.074;2023-02-21T08:46:24;0.30;;;0.30;;
2464;SDS011;1244;54.326;10.074;2023-02-21T08:48:50;0.30;;;0.30;;
2464;SDS011;1244;54.326;10.074;2023-02-21T08:51:15;0.27;;;0.27;;
2464;SDS011;1244;54.326;10.074;2023-02-21T08:53:41;0.50;;;0.50;;
2464;SDS011;1244;54.326;10.074;2023-02-21T08:56:07;0.43;;;0.43;;
2464;SDS011;1244;54.326;10.074;2023-02-21T08:58:32;0.53;;;0.53;;
2464;SDS011;1244;54.326;10.074;2023-02-21T09:00:58;0.40;;;0.40;;
2464;SDS011;1244;54.326;10.074;2023-02-21T09:03:23;0.40;;;0.40;;
2464;SDS011;1244;54.326;10.074;2023-02-21T09:05:49;0.50;;;0.50;;
2464;SDS011;1244;54.326;10.074;2023-02-21T09:08:14;0.40;;;0.40;;
2464;SDS011;1244;54.326;10.074;2023-02-21T09:10:40;0.60;;;0.60;;
2464;SDS011;1244;54.326;10.074;2023-02-21T09:13:11;0.30;;;0.30;;
2464;SDS011;1244;54.326;10.074;2023-02-21T09:15:36;0.40;;;0.40;;
2464;SDS011;1244;54.326;10.074;2023-02-21T09:18:02;0.50;;;0.50;;
2464;SDS011;1244;54.326;10.074;2023-02-21T09:20:27;0.40;;;0.40;;
2464;SDS011;1244;54.326;10.074;2023-02-21T09:22:53;0.40;;;0.40;;
2464;SDS011;1244;54.326;10.074;2023-02-21T09:25:20;0.20;;;0.20;;
2464;SDS011;1244;54.326;10.074;2023-02-21T09:27:48;0.20;;;0.20;;
2464;SDS011;1244;54.326;10.074;2023-02-21T09:30:15;0.20;;;0.20;;
2464;SDS011;1244;54.326;10.074;2023-02-21T09:32:47;0.40;;;0.40;;
2464;SDS011;1244;54.326;10.074;2023-02-21T09:35:14;0.50;;;0.50;;
2464;SDS011;1244;54.326;10.074;2023-02-21T09:37:40;0.47;;;0.47;;
2464;SDS011;1244;54.326;10.074;2023-02-21T09:40:11;0.20;;;0.20;;
2464;SDS011;1244;54.326;10.074;2023-02-21T09:42:48;0.20;;;0.20;;
2464;SDS011;1244;54.326;10.074;2023-02-21T09:45:15;0.30;;;0.30;;
2464;SDS011;1244;54.326;10.074;2023-02-21T09:47:43;0.37;;;0.37;;
2464;SDS011;1244;54.326;10.074;2023-02-21T09:50:14;0.30;;;0.30;;
2464;SDS011;1244;54.326;10.074;2023-02-21T09:52:43;0.23;;;0.23;;
2464;SDS011;1244;54.326;10.074;2023-02-21T09:55:13;0.20;;;0.20;;
2464;SDS011;1244;54.326;10.074;2023-02-21T09:57:51;0.10;;;0.10;;
2464;SDS011;1244;54.326;10.074;2023-02-21T10:00:22;0.20;;;0.20;;
2464;SDS011;1244;54.326;10.074;2023-02-21T10:05:49;0.23;;;0.23;;
2464;SDS011;1244;54.326;10.074;2023-02-21T10:14:26;0.30;;;0.30;;
2464;SDS011;1244;54.326;10.074;2023-02-21T10:17:04;0.40;;;0.40;;
2464;SDS011;1244;54.326;10.074;2023-02-21T10:19:41;0.20;;;0.20;;
2464;SDS011;1244;54.326;10.074;2023-02-21T10:22:11;0.20;;;0.20;;
2464;SDS011;1244;54.326;10.074;2023-02-21T10:24:49;0.40;;;0.40;;
2464;SDS011;1244;54.326;10.074;2023-02-21T10:27:25;0.40;;;0.40;;
2464;SDS011;1244;54.326;10.074;2023-02-21T10:30:04;0.30;;;0.30;;
2464;SDS011;1244;54.326;10.074;2023-02-21T10:32:34;0.43;;;0.43;;
2464;SDS011;1244;54.326;10.074;2023-02-21T10:35:01;0.37;;;0.37;;
2464;SDS011;1244;54.326;10.074;2023-02-21T10:40:24;0.40;;;0.40;;
2464;SDS011;1244;54.326;10.074;2023-02-21T10:43:31;0.40;;;0.40;;
2464;SDS011;1244;54.326;10.074;2023-02-21T10:46:22;0.30;;;0.30;;
2464;SDS011;1244;54.326;10.074;2023-02-21T10:48:58;0.30;;;0.30;;
2464;SDS011;1244;54.326;10.074;2023-02-21T10:51:44;0.30;;;0.30;;
2464;SDS011;1244;54.326;10.074;2023-02-21T10:54:23;0.20;;;0.20;;
2464;SDS011;1244;54.326;10.074;2023-02-21T10:56:50;0.43;;;0.43;;
2464;SDS011;1244;54.326;10.074;2023-02-21T10:59:18;0.30;;;0.30;;
2464;SDS011;1244;54.326;10.074;2023-02-21T11:01:47;0.40;;;0.40;;
2464;SDS011;1244;54.326;10.074;2023-02-21T11:06:48;0.50;;;0.50;;
2464;SDS011;1244;54.326;10.074;2023-02-21T11:09:32;0.50;;;0.50;;
2464;SDS011;1244;54.326;10.074;2023-02-21T11:12:16;0.30;;;0.30;;
2464;SDS011;1244;54.326;10.074;2023-02-21T11:15:29;0.20;;;0.20;;
2464;SDS011;1244;54.326;10.074;2023-02-21T11:17:41;0.37;;;0.37;;
2464;SDS011;1244;54.326;10.074;2023-02-21T11:22:42;0.30;;;0.30;;
2464;SDS011;1244;54.326;10.074;2023-02-21T11:31:01;0.20;;;0.20;;
2464;SDS011;1244;54.326;10.074;2023-02-21T11:33:35;0.20;;;0.20;;
2464;SDS011;1244;54.326;10.074;2023-02-21T11:36:08;0.20;;;0.20;;
2464;SDS011;1244;54.326;10.074;2023-02-21T11:38:40;0.30;;;0.30;;
2464;SDS011;1244;54.326;10.074;2023-02-21T11:41:21;0.20;;;0.20;;
2464;SDS011;1244;54.326;10.074;2023-02-21T11:43:52;0.20;;;0.20;;
2464;SDS011;1244;54.326;10.074;2023-02-21T11:52:19;0.10;;;0.10;;
2464;SDS011;1244;54.326;10.074;2023-02-21T11:54:32;0.10;;;0.10;;
2464;SDS011;1244;54.326;10.074;2023-02-21T11:57:00;0.10;;;0.10;;
2464;SDS011;1244;54.326;10.074;2023-02-21T12:04:55;0.10;;;0.10;;
2464;SDS011;1244;54.326;10.074;2023-02-21T12:07:42;0.10;;;0.10;;
2464;SDS011;1244;54.326;10.074;2023-02-21T12:13:31;0.20;;;0.20;;
2464;SDS011;1244;54.326;10.074;2023-02-21T12:16:18;0.23;;;0.23;;
2464;SDS011;1244;54.326;10.074;2023-02-21T12:19:12;0.23;;;0.23;;
2464;SDS011;1244;54.326;10.074;2023-02-21T12:24:43;0.20;;;0.20;;
2464;SDS011;1244;54.326;10.074;2023-02-21T12:27:37;0.20;;;0.20;;
2464;SDS011;1244;54.326;10.074;2023-02-21T12:30:37;0.20;;;0.20;;
2464;SDS011;1244;54.326;10.074;2023-02-21T12:47:01;0.30;;;0.30;;
2464;SDS011;1244;54.326;10.074;2023-02-21T12:49:44;0.10;;;0.10;;
2464;SDS011;1244;54.326;10.074;2023-02-21T12:52:29;0.20;;;0.20;;
2464;SDS011;1244;54.326;10.074;2023-02-21T12:55:02;0.10;;;0.10;;
2464;SDS011;1244;54.326;10.074;2023-02-21T12:57:45;0.17;;;0.17;;
2464;SDS011;1244;54.326;10.074;2023-02-21T13:00:34;0.20;;;0.20;;
2464;SDS011;1244;54.326;10.074;2023-02-21T13:05:52;0.30;;;0.30;;
2464;SDS011;1244;54.326;10.074;2023-02-21T13:08:23;0.20;;;0.20;;
2464;SDS011;1244;54.326;10.074;2023-02-21T13:11:21;0.20;;;0.20;;
2464;SDS011;1244;54.326;10.074;2023-02-21T13:13:54;0.20;;;0.20;;
2464;SDS011;1244;54.326;10.074;2023-02-21T13:16:21;0.20;;;0.20;;
2464;SDS011;1244;54.326;10.074;2023-02-21T13:18:51;0.20;;;0.20;;
2464;SDS011;1244;54.326;10.074;2023-02-21T13:29:37;0.20;;;0.20;;
2464;SDS011;1244;54.326;10.074;2023-02-21T13:34:39;0.20;;;0.20;;
2464;SDS011;1244;54.326;10.074;2023-02-21T13:37:21;0.20;;;0.20;;
2464;SDS011;1244;54.326;10.074;2023-02-21T13:39:51;0.20;;;0.20;;
2464;SDS011;1244;54.326;10.074;2023-02-21T13:42:20;0.20;;;0.20;;
2464;SDS011;1244;54.326;10.074;2023-02-21T13:50:44;0.20;;;0.20;;
2464;SDS011;1244;54.326;10.074;2023-02-21T13:53:15;0.10;;;0.10;;
2464;SDS011;1244;54.326;10.074;2023-02-21T13:58:46;0.30;;;0.30;;
2464;SDS011;1244;54.326;10.074;2023-02-21T14:01:18;0.30;;;0.30;;
2464;SDS011;1244;54.326;10.074;2023-02-21T14:04:47;0.23;;;0.23;;
2464;SDS011;1244;54.326;10.074;2023-02-21T14:07:06;0.20;;;0.20;;
2464;SDS011;1244;54.326;10.074;2023-02-21T14:09:33;0.10;;;0.10;;
2464;SDS011;1244;54.326;10.074;2023-02-21T14:12:03;0.10;;;0.10;;
2464;SDS011;1244;54.326;10.074;2023-02-21T14:14:30;0.10;;;0.10;;
2464;SDS011;1244;54.326;10.074;2023-02-21T14:17:02;0.10;;;0.10;;
2464;SDS011;1244;54.326;10.074;2023-02-21T14:19:40;0.10;;;0.10;;
2464;SDS011;1244;54.326;10.074;2023-02-21T14:22:11;0.10;;;0.10;;
2464;SDS011;1244;54.326;10.074;2023-02-21T14:24:46;0.10;;;0.10;;
2464;SDS011;1244;54.326;10.074;2023-02-21T14:29:43;0.10;;;0.10;;
2464;SDS011;1244;54.326;10.074;2023-02-21T14:32:34;0.10;;;0.10;;
2464;SDS011;1244;54.326;10.074;2023-02-21T14:35:20;0.10;;;0.00;;
2464;SDS011;1244;54.326;10.074;2023-02-21T14:37:57;0.10;;;0.10;;
2464;SDS011;1244;54.326;10.074;2023-02-21T14:40:28;0.10;;;0.10;;
2464;SDS011;1244;54.326;10.074;2023-02-21T14:54:21;0.10;;;0.10;;
2464;SDS011;1244;54.326;10.074;2023-02-21T15:07:59;0.10;;;0.10;;
2464;SDS011;1244;54.326;10.074;2023-02-21T15:10:40;0.20;;;0.20;;
2464;SDS011;1244;54.326;10.074;2023-02-21T15:16:03;0.10;;;0.10;;
2464;SDS011;1244;54.326;10.074;2023-02-21T15:18:40;0.20;;;0.20;;
2464;SDS011;1244;54.326;10.074;2023-02-21T15:21:20;0.20;;;0.20;;
2464;SDS011;1244;54.326;10.074;2023-02-21T15:23:47;0.10;;;0.10;;
2464;SDS011;1244;54.326;10.074;2023-02-21T15:29:14;0.20;;;0.20;;
2464;SDS011;1244;54.326;10.074;2023-02-21T15:31:53;0.20;;;0.20;;
2464;SDS011;1244;54.326;10.074;2023-02-21T15:34:28;0.20;;;0.20;;
2464;SDS011;1244;54.326;10.074;2023-02-21T15:37:02;0.20;;;0.20;;
2464;SDS011;1244;54.326;10.074;2023-02-21T15:39:30;0.20;;;0.20;;
2464;SDS011;1244;54.326;10.074;2023-02-21T15:41:59;0.20;;;0.20;;
2464;SDS011;1244;54.326;10.074;2023-02-21T15:44:29;0.20;;;0.20;;
2464;SDS011;1244;54.326;10.074;2023-02-21T15:47:03;0.20;;;0.20;;
2464;SDS011;1244;54.326;10.074;2023-02-21T15:52:02;0.10;;;0.10;;
2464;SDS011;1244;54.326;10.074;2023-02-21T15:54:30;0.20;;;0.20;;
2464;SDS011;1244;54.326;10.074;2023-02-21T15:57:00;0.20;;;0.20;;
2464;SDS011;1244;54.326;10.074;2023-02-21T15:59:27;0.20;;;0.20;;
2464;SDS011;1244;54.326;10.074;2023-02-21T16:02:10;0.20;;;0.20;;
2464;SDS011;1244;54.326;10.074;2023-02-21T16:04:39;0.20;;;0.20;;
2464;SDS011;1244;54.326;10.074;2023-02-21T16:07:06;0.20;;;0.20;;
2464;SDS011;1244;54.326;10.074;2023-02-21T16:09:33;0.20;;;0.20;;
2464;SDS011;1244;54.326;10.074;2023-02-21T16:15:18;0.20;;;0.20;;
2464;SDS011;1244;54.326;10.074;2023-02-21T16:17:26;0.20;;;0.20;;
2464;SDS011;1244;54.326;10.074;2023-02-21T16:19:52;0.20;;;0.20;;
2464;SDS011;1244;54.326;10.074;2023-02-21T16:24:49;0.30;;;0.30;;
2464;SDS011;1244;54.326;10.074;2023-02-21T16:27:28;0.20;;;0.20;;
2464;SDS011;1244;54.326;10.074;2023-02-21T16:29:53;0.20;;;0.20;;
2464;SDS011;1244;54.326;10.074;2023-02-21T16:32:19;0.20;;;0.20;;
2464;SDS011;1244;54.326;10.074;2023-02-21T16:34:46;0.20;;;0.20;;
2464;SDS011;1244;54.326;10.074;2023-02-21T16:37:12;0.20;;;0.20;;
2464;SDS011;1244;54.326;10.074;2023-02-21T16:39:39;0.20;;;0.20;;
2464;SDS011;1244;54.326;10.074;2023-02-21T16:42:06;0.20;;;0.20;;
2464;SDS011;1244;54.326;10.074;2023-02-21T16:44:32;0.20;;;0.20;;
2464;SDS011;1244;54.326;10.074;2023-02-21T16:46:59;0.20;;;0.20;;
2464;SDS011;1244;54.326;10.074;2023-02-21T16:49:25;0.20;;;0.20;;
2464;SDS011;1244;54.326;10.074;2023-02-21T16:51:51;0.20;;;0.20;;
2464;SDS011;1244;54.326;10.074;2023-02-21T16:54:18;0.20;;;0.20;;
2464;SDS011;1244;54.326;10.074;2023-02-21T16:56:45;0.20;;;0.20;;
2464;SDS011;1244;54.326;10.074;2023-02-21T16:59:13;0.20;;;0.20;;
2464;SDS011;1244;54.326;10.074;2023-02-21T17:01:40;0.20;;;0.20;;
2464;SDS011;1244;54.326;10.074;2023-02-21T17:04:17;0.20;;;0.20;;
2464;SDS011;1244;54.326;10.074;2023-02-21T17:06:50;0.20;;;0.20;;
2464;SDS011;1244;54.326;10.074;2023-02-21T17:09:18;0.20;;;0.20;;
2464;SDS011;1244;54.326;10.074;2023-02-21T17:11:44;0.20;;;0.20;;
2464;SDS011;1244;54.326;10.074;2023-02-21T17:14:10;0.20;;;0.20;;
2464;SDS011;1244;54.326;10.074;2023-02-21T17:16:35;0.20;;;0.20;;
2464;SDS011;1244;54.326;10.074;2023-02-21T17:19:02;0.20;;;0.20;;
2464;SDS011;1244;54.326;10.074;2023-02-21T17:21:28;0.20;;;0.20;;
2464;SDS011;1244;54.326;10.074;2023-02-21T17:23:55;0.20;;;0.20;;
2464;SDS011;1244;54.326;10.074;2023-02-21T17:26:21;0.27;;;0.27;;
2464;SDS011;1244;54.326;10.074;2023-02-21T17:28:47;0.20;;;0.20;;
2464;SDS011;1244;54.326;10.074;2023-02-21T17:31:16;0.20;;;0.20;;
2464;SDS011;1244;54.326;10.074;2023-02-21T17:33:42;0.20;;;0.20;;
2464;SDS011;1244;54.326;10.074;2023-02-21T17:36:14;0.20;;;0.20;;
2464;SDS011;1244;54.326;10.074;2023-02-21T17:38:41;0.20;;;0.20;;
2464;SDS011;1244;54.326;10.074;2023-02-21T17:41:06;0.33;;;0.33;;
2464;SDS011;1244;54.326;10.074;2023-02-21T17:43:32;0.40;;;0.40;;
2464;SDS011;1244;54.326;10.074;2023-02-21T17:45:58;0.20;;;0.20;;
2464;SDS011;1244;54.326;10.074;2023-02-21T17:48:24;0.20;;;0.20;;
2464;SDS011;1244;54.326;10.074;2023-02-21T17:50:49;0.30;;;0.30;;